Scunthorpe, United Kingdom
Current Conditions -  °F | °C
As of 6:20 AM on Wednesday 28 Jan 2015 (Local Time) from EGNJ Reporting Station
Light Rain Light Rain  
Wind Chill:   Ceiling: 1500
Heat Index:   Visibility: 6mi
Dew Point:   Wind: 26mph
Humidity: 87%   Direction: 200°SSW
Pressure: 29.5"   Gusts: NA
Location:  53.58°N, 0.65°W
Report Text: EGNJ 280620Z 20023KT 9999 -RA BKN015 08/06 Q0999
Loading
Personal Weather Stations






























Interactive Weather Map New forecast layout! Learn more

10-Day Weather Forecast

Advertisements
Track Severe Weather on mobile